University of Wyoming, Wyoming
Current Conditions -  °F | °C
As of 10:53 PM on Wednesday 22 Oct 2014 (Local Time) from KLAR Reporting Station
Clear Clear  
Wind Chill: 29°   Ceiling: Unl
Heat Index: 37°   Visibility: 10mi
Dew Point: 25°   Wind: 13mph
Humidity: 62%   Direction: 230°SW
Pressure: 30.21"   Gusts: NA
Location:  41.4218°N, 105.605°W
Report Text: KLAR 230453Z AUTO 23011KT 10SM CLR 03/M04 A3021 RMK AO2 SLP182 T00281039
Loading
Personal Weather Stations






























Interactive Weather Map New forecast layout! Learn more

10-Day Weather Forecast

Advertisements
Track Severe Weather on mobile